Time;durP1;ratioP1;P1;durP2;ratioP2;P2;SDS_P1;SDS_P2;PMS_P1;PMS_P2;Temp;Humidity;BMP_temperature;BMP_pressure;BME280_temperature;BME280_humidity;BME280_pressure;Samples;Min_cycle;Max_cycle;Signal;HPM_P1;HPM_P2
2022/04/23 00:00:04;;;;;;;11.55;7.25;;;;;;;7.63;73.27;99996.03;5002582;28;20046;-74
2022/04/23 00:02:39;;;;;;;9.57;6.75;;;;;;;7.59;73.97;99986.41;5000055;28;20041;-74
2022/04/23 00:05:05;;;;;;;9.82;7.18;;;;;;;7.58;74.09;99987.31;5000160;28;20045;-74
2022/04/23 00:07:30;;;;;;;11.88;8.13;;;;;;;7.55;74.27;99997.81;5002079;28;20120;-74
2022/04/23 00:09:55;;;;;;;10.35;7.88;;;;;;;7.50;74.37;99989.94;5001751;28;20041;-74
2022/04/23 00:12:20;;;;;;;8.88;6.97;;;;;;;7.46;74.13;99990.81;5000242;28;20038;-75
2022/04/23 00:14:46;;;;;;;10.73;7.45;;;;;;;7.43;74.35;99994.31;5003079;28;20026;-75
2022/04/23 00:17:11;;;;;;;13.93;8.50;;;;;;;7.41;74.30;99989.94;5000325;28;20030;-74
2022/04/23 00:19:40;;;;;;;13.63;8.70;;;;;;;7.36;74.96;99997.88;5001642;28;20030;-75
2022/04/23 00:22:05;;;;;;;12.63;8.38;;;;;;;7.33;74.45;99987.34;4999098;28;20105;-74
2022/04/23 00:24:31;;;;;;;10.88;8.05;;;;;;;7.33;74.51;100003.09;5002935;28;20469;-75
2022/04/23 00:26:56;;;;;;;10.95;7.97;;;;;;;7.27;74.82;99995.22;5000325;28;20041;-75
2022/04/23 00:29:21;;;;;;;13.55;10.13;;;;;;;7.25;75.04;99999.59;5000449;28;20065;-74
2022/04/23 00:31:47;;;;;;;11.68;8.77;;;;;;;7.22;75.06;99999.63;5001463;28;20085;-74
2022/04/23 00:34:12;;;;;;;11.73;9.05;;;;;;;7.21;75.52;99995.25;5000142;28;20065;-74
2022/04/23 00:36:38;;;;;;;11.85;8.32;;;;;;;7.18;75.33;99990.88;5002812;28;20069;-74
2022/04/23 00:39:05;;;;;;;11.98;9.45;;;;;;;7.16;75.55;99995.25;4995999;28;20050;-74
2022/04/23 00:41:46;;;;;;;11.25;8.82;;;;;;;7.14;75.26;100001.38;5001019;28;20042;-74
2022/04/23 00:44:12;;;;;;;10.90;8.13;;;;;;;7.10;75.08;99995.25;5000658;28;20034;-74
2022/04/23 00:46:37;;;;;;;10.65;8.73;;;;;;;7.07;75.26;99989.13;5001134;28;20401;-75
2022/04/23 00:49:08;;;;;;;10.98;8.85;;;;;;;7.05;75.47;99996.13;5000678;28;20045;-74
2022/04/23 00:51:34;;;;;;;13.25;8.10;;;;;;;6.98;75.71;99990.88;4998660;28;20404;-74
2022/04/23 00:54:04;;;;;;;10.45;8.18;;;;;;;6.96;75.49;99995.25;5000934;28;20121;-74
2022/04/23 00:56:31;;;;;;;11.75;9.15;;;;;;;6.93;76.28;99994.38;5002390;28;20030;-75
2022/04/23 00:58:56;;;;;;;11.05;8.65;;;;;;;6.89;76.19;99990.00;5005636;28;20038;-74
2022/04/23 01:01:23;;;;;;;16.35;12.25;;;;;;;6.84;76.41;99992.63;5008402;28;20033;-73
2022/04/23 01:03:50;;;;;;;12.70;9.50;;;;;;;6.82;76.82;99990.88;5002211;28;20041;-74
2022/04/23 01:06:16;;;;;;;12.52;9.35;;;;;;;6.77;76.57;99991.75;4999034;28;20434;-73
2022/04/23 01:08:41;;;;;;;11.93;9.27;;;;;;;6.71;76.66;99985.66;5002494;28;20037;-74
2022/04/23 01:11:07;;;;;;;13.05;8.75;;;;;;;6.67;77.03;99984.75;5001266;28;20044;-74
2022/04/23 01:13:33;;;;;;;12.48;8.65;;;;;;;6.64;76.87;99981.25;5004549;28;20118;-74
2022/04/23 01:16:04;;;;;;;12.02;8.98;;;;;;;6.59;77.16;99992.59;5005448;28;20180;-74
2022/04/23 01:18:30;;;;;;;12.15;8.88;;;;;;;6.55;77.15;99996.09;5003104;28;20051;-74
2022/04/23 01:20:57;;;;;;;10.95;8.10;;;;;;;6.52;77.04;99985.63;5003273;28;20080;-74
2022/04/23 01:23:23;;;;;;;11.68;8.60;;;;;;;6.47;77.18;99987.34;5005607;28;20073;-74
2022/04/23 01:25:54;;;;;;;11.48;8.80;;;;;;;6.41;77.48;99986.47;5006243;28;20072;-74
2022/04/23 01:28:21;;;;;;;12.60;8.68;;;;;;;6.36;77.62;99986.44;5005787;28;20081;-74
2022/04/23 01:30:50;;;;;;;13.45;9.00;;;;;;;6.32;78.05;99989.94;5006072;28;20041;-74
2022/04/23 01:33:16;;;;;;;12.50;9.25;;;;;;;6.28;78.05;99988.16;5012178;28;20062;-74
2022/04/23 01:35:42;;;;;;;10.65;7.60;;;;;;;6.27;78.02;100000.41;5005347;28;20452;-74
2022/04/23 01:38:08;;;;;;;11.93;8.32;;;;;;;6.23;78.09;99985.53;5008041;28;20041;-74
2022/04/23 01:40:33;;;;;;;12.07;9.25;;;;;;;6.21;78.60;99994.25;5005464;28;20420;-74
2022/04/23 01:42:59;;;;;;;13.23;9.43;;;;;;;6.19;79.00;99991.66;5003088;28;20038;-74
2022/04/23 01:45:24;;;;;;;11.48;8.98;;;;;;;6.17;78.58;99996.00;5010246;28;20038;-74
2022/04/23 01:47:50;;;;;;;17.75;9.68;;;;;;;6.14;78.74;100004.72;5008735;28;20045;-74
2022/04/23 01:50:15;;;;;;;12.43;9.05;;;;;;;6.10;79.04;99995.13;5006407;28;20037;-75
2022/04/23 01:52:40;;;;;;;11.98;9.38;;;;;;;6.05;79.24;99999.47;5005057;28;20054;-75
2022/04/23 01:55:06;;;;;;;12.02;9.50;;;;;;;6.01;79.17;100000.31;5007176;28;20525;-74
2022/04/23 01:57:31;;;;;;;11.27;8.82;;;;;;;5.97;79.16;100005.53;5014526;28;20037;-74
2022/04/23 01:59:56;;;;;;;12.85;9.18;;;;;;;5.92;79.37;100002.84;5004309;28;20033;-73
2022/04/23 02:02:22;;;;;;;12.38;9.55;;;;;;;5.84;79.26;100002.84;5010946;28;20038;-74
2022/04/23 02:04:47;;;;;;;11.93;9.35;;;;;;;5.79;79.45;100011.53;5008904;28;20042;-74
2022/04/23 02:07:13;;;;;;;10.90;8.82;;;;;;;5.68;79.67;100001.00;5010802;28;20029;-75
2022/04/23 02:09:38;;;;;;;11.32;9.00;;;;;;;5.60;79.47;100010.56;5004535;28;20034;-75
2022/04/23 02:12:04;;;;;;;12.15;9.13;;;;;;;5.51;79.72;100006.16;5002996;28;20066;-75
2022/04/23 02:14:29;;;;;;;14.23;10.02;;;;;;;5.42;79.85;100012.22;5002857;28;20038;-75
2022/04/23 02:16:54;;;;;;;13.57;10.05;;;;;;;5.30;80.57;100006.03;5011850;28;20096;-75
2022/04/23 02:19:22;;;;;;;13.52;9.65;;;;;;;5.17;80.14;100012.91;5004665;28;20048;-75
2022/04/23 02:21:47;;;;;;;13.75;9.65;;;;;;;5.03;80.58;100012.78;4999940;28;20103;-75
2022/04/23 02:24:13;;;;;;;13.80;10.55;;;;;;;4.98;81.07;100019.75;5003145;28;20600;-75
2022/04/23 02:26:38;;;;;;;12.95;9.90;;;;;;;4.93;81.45;100016.22;5002048;28;20469;-75
2022/04/23 02:29:03;;;;;;;13.32;10.40;;;;;;;4.89;80.91;100012.66;5019989;28;20049;-74
2022/04/23 02:31:29;;;;;;;14.40;11.10;;;;;;;4.83;81.51;100023.09;5001667;28;20038;-74
2022/04/23 02:33:54;;;;;;;12.52;10.15;;;;;;;4.74;81.85;100021.28;5003091;28;20030;-74
2022/04/23 02:36:20;;;;;;;14.43;11.02;;;;;;;4.67;81.99;100021.19;5003656;28;20082;-74
2022/04/23 02:38:50;;;;;;;14.95;11.15;;;;;;;4.59;81.88;100022.00;5000244;28;20053;-74
2022/04/23 02:41:15;;;;;;;16.35;12.70;;;;;;;4.54;82.31;100021.06;5003406;28;20038;-74
2022/04/23 02:43:43;;;;;;;15.75;11.85;;;;;;;4.48;83.15;100017.50;5002826;28;20488;-74
2022/04/23 02:46:09;;;;;;;15.20;11.65;;;;;;;4.44;83.77;100024.44;5000497;28;20042;-74
2022/04/23 02:48:35;;;;;;;16.38;11.70;;;;;;;4.41;83.93;100026.16;5004179;28;20030;-74
2022/04/23 02:51:01;;;;;;;15.50;11.18;;;;;;;4.35;83.65;100033.06;5000539;28;20026;-73
2022/04/23 02:53:26;;;;;;;14.50;10.57;;;;;;;4.28;83.47;100019.94;4998415;28;20045;-74
2022/04/23 02:55:56;;;;;;;12.63;9.55;;;;;;;4.23;83.56;100027.69;5003405;28;20040;-74
2022/04/23 02:58:24;;;;;;;14.13;10.70;;;;;;;4.17;83.88;100025.91;4999841;28;20050;-74
2022/04/23 03:00:49;;;;;;;16.33;12.20;;;;;;;4.15;83.85;100022.38;5002803;28;20036;-76
2022/04/23 03:03:15;;;;;;;17.23;12.15;;;;;;;4.15;84.52;100031.97;5022787;28;20041;-74
2022/04/23 03:05:43;;;;;;;16.13;12.48;;;;;;;4.14;84.75;100027.63;5010184;28;20544;-75
2022/04/23 03:08:11;;;;;;;19.27;13.50;;;;;;;4.14;84.82;100038.06;5005673;28;20037;-75
2022/04/23 03:10:39;;;;;;;17.02;13.15;;;;;;;4.13;85.12;100044.13;5002226;28;20070;-74
2022/04/23 03:13:05;;;;;;;17.23;13.48;;;;;;;4.11;85.62;100038.00;5001214;28;20109;-75
2022/04/23 03:15:30;;;;;;;16.48;12.10;;;;;;;4.10;85.39;100041.47;5003786;28;20041;-74
2022/04/23 03:18:10;;;;;;;19.35;13.25;;;;;;;4.06;85.24;100035.34;4999566;28;20038;-75
2022/04/23 03:20:36;;;;;;;14.63;11.10;;;;;;;3.92;85.59;100035.16;5000690;28;20551;-75
2022/04/23 03:23:02;;;;;;;16.30;11.82;;;;;;;3.82;85.14;100033.28;5000362;28;20042;-75
2022/04/23 03:25:28;;;;;;;16.52;12.02;;;;;;;3.77;85.00;100040.16;5005866;28;20030;-75
2022/04/23 03:27:53;;;;;;;17.48;12.35;;;;;;;3.74;85.37;100040.13;5001415;28;20042;-75
2022/04/23 03:30:20;;;;;;;15.60;11.75;;;;;;;3.71;85.82;100042.72;5000558;28;20138;-75
2022/04/23 03:32:46;;;;;;;17.85;12.95;;;;;;;3.74;86.35;100040.13;5000266;28;20045;-75
2022/04/23 03:35:11;;;;;;;17.08;13.57;;;;;;;3.79;86.64;100051.53;5002423;28;20078;-74
2022/04/23 03:37:41;;;;;;;19.52;15.02;;;;;;;3.83;87.12;100045.50;5002269;28;20038;-75
2022/04/23 03:40:07;;;;;;;20.30;14.57;;;;;;;3.88;87.13;100043.81;4999153;28;20448;-77
2022/04/23 03:42:33;;;;;;;20.08;15.73;;;;;;;3.91;87.21;100046.47;5002954;28;20044;-77
2022/04/23 03:44:58;;;;;;;20.77;15.70;;;;;;;3.93;87.85;100050.00;5001905;28;20472;-77
2022/04/23 03:47:23;;;;;;;22.45;17.05;;;;;;;3.97;87.99;100044.78;5000317;28;20034;-75
2022/04/23 03:49:49;;;;;;;21.17;16.75;;;;;;;3.98;87.98;100051.75;5003066;28;20088;-74
2022/04/23 03:52:14;;;;;;;21.85;17.92;;;;;;;4.01;88.46;100042.25;5000005;28;20031;-77
2022/04/23 03:54:40;;;;;;;21.83;17.02;;;;;;;4.03;87.96;100050.09;5003197;28;20627;-77
2022/04/23 03:57:05;;;;;;;22.98;17.48;;;;;;;4.07;88.40;100046.66;5002013;28;20489;-77
2022/04/23 03:59:31;;;;;;;23.45;17.77;;;;;;;4.07;88.50;100046.66;5001459;28;20123;-74
2022/04/23 04:01:56;;;;;;;21.20;16.85;;;;;;;4.09;88.53;100044.97;5003154;28;20038;-74
2022/04/23 04:04:22;;;;;;;20.75;15.75;;;;;;;4.10;88.25;100046.69;5001685;28;20084;-74
2022/04/23 04:06:47;;;;;;;22.40;15.68;;;;;;;4.13;87.86;100045.00;5007826;28;20038;-73
2022/04/23 04:09:13;;;;;;;21.05;16.42;;;;;;;4.13;87.74;100050.22;5010397;28;20154;-74
2022/04/23 04:14:22;;;;;;;23.10;17.80;;;;;;;4.15;88.15;100047.63;5003060;28;20035;-74
2022/04/23 04:16:49;;;;;;;23.25;18.65;;;;;;;4.17;88.34;100051.16;5003050;28;20040;-74
2022/04/23 04:19:15;;;;;;;26.23;18.77;;;;;;;4.22;88.93;100057.31;5000265;28;20057;-74
2022/04/23 04:21:43;;;;;;;19.35;16.30;;;;;;;4.25;88.50;100057.34;4999200;28;20052;-76
2022/04/23 04:24:12;;;;;;;24.83;18.05;;;;;;;4.26;88.23;100059.06;5008270;28;20477;-76
2022/04/23 04:26:40;;;;;;;50.38;38.03;;;;;;;4.28;88.19;100054.75;5006640;28;20033;-76
2022/04/23 04:29:06;;;;;;;84.32;57.70;;;;;;;4.31;88.24;100053.91;5003505;28;20042;-76
2022/04/23 04:31:49;;;;;;;95.55;62.40;;;;;;;4.35;87.93;100058.34;5000690;28;20860;-76
2022/04/23 04:34:17;;;;;;;57.30;41.13;;;;;;;4.39;88.07;100060.09;5001373;28;20044;-74
2022/04/23 04:36:43;;;;;;;40.60;30.67;;;;;;;4.42;87.88;100057.53;4999129;28;20492;-74
2022/04/23 04:39:08;;;;;;;31.17;24.08;;;;;;;4.46;87.54;100061.06;5002720;28;20041;-74
2022/04/23 04:41:35;;;;;;;25.13;20.73;;;;;;;4.51;87.19;100055.03;5000069;28;20088;-74
2022/04/23 04:44:01;;;;;;;24.65;17.85;;;;;;;4.54;87.15;100054.19;5001315;28;20052;-74
2022/04/23 04:46:27;;;;;;;24.20;18.27;;;;;;;4.56;87.22;100052.47;5004203;28;20096;-74
2022/04/23 04:48:52;;;;;;;22.90;18.25;;;;;;;4.58;86.74;100050.72;5003544;28;20125;-74
2022/04/23 04:51:17;;;;;;;24.13;17.20;;;;;;;4.60;86.93;100054.22;5005909;28;20040;-74
2022/04/23 04:53:43;;;;;;;22.98;18.17;;;;;;;4.65;86.68;100063.00;5002716;28;20142;-74
2022/04/23 04:56:09;;;;;;;20.95;17.05;;;;;;;4.66;86.74;100059.50;5004033;28;20034;-74
2022/04/23 04:58:34;;;;;;;23.05;18.50;;;;;;;4.74;86.75;100062.19;4996978;28;20092;-74
2022/04/23 05:01:00;;;;;;;22.13;17.30;;;;;;;4.81;86.07;100064.91;5008107;28;20500;-74
2022/04/23 05:03:25;;;;;;;22.02;17.85;;;;;;;4.84;86.04;100064.91;5011633;28;20045;-74
2022/04/23 05:05:51;;;;;;;22.63;16.63;;;;;;;4.88;86.13;100068.47;5005676;28;20029;-75
2022/04/23 05:08:17;;;;;;;21.70;17.13;;;;;;;4.93;85.90;100061.53;5012448;28;20125;-75
2022/04/23 05:10:42;;;;;;;22.65;17.50;;;;;;;4.98;86.09;100067.69;5009735;28;20454;-75
2022/04/23 05:13:07;;;;;;;21.27;17.65;;;;;;;5.04;85.56;100066.84;5006323;28;20045;-74
2022/04/23 05:15:33;;;;;;;23.60;17.77;;;;;;;5.09;85.32;100070.41;5003995;28;20030;-75
2022/04/23 05:17:58;;;;;;;22.83;17.83;;;;;;;5.17;85.01;100066.09;5004211;28;20099;-76
2022/04/23 05:20:23;;;;;;;20.73;17.08;;;;;;;5.23;85.04;100068.75;5003093;28;20401;-76
2022/04/23 05:22:48;;;;;;;21.42;16.95;;;;;;;5.31;84.78;100067.94;5009076;28;20535;-75
2022/04/23 05:25:14;;;;;;;21.95;17.08;;;;;;;5.39;84.16;100068.88;5010841;28;20045;-75
2022/04/23 05:27:39;;;;;;;21.15;16.38;;;;;;;5.47;84.18;100067.19;5014305;28;20038;-74
2022/04/23 05:30:05;;;;;;;20.38;16.40;;;;;;;5.55;83.94;100072.47;5009059;28;20061;-74
2022/04/23 05:32:30;;;;;;;22.23;17.02;;;;;;;5.62;83.56;100072.53;5001731;28;20062;-74
2022/04/23 05:34:56;;;;;;;19.88;16.25;;;;;;;5.68;83.49;100072.56;5003839;28;20075;-75
2022/04/23 05:37:21;;;;;;;18.52;15.40;;;;;;;5.76;82.89;100076.97;5001500;28;20038;-74
2022/04/23 05:39:46;;;;;;;21.05;16.50;;;;;;;5.82;82.79;100077.03;5000953;28;20374;-75
2022/04/23 05:42:12;;;;;;;22.63;17.08;;;;;;;5.86;82.59;100069.19;5001461;28;20037;-74
2022/04/23 05:44:37;;;;;;;19.52;16.15;;;;;;;5.94;82.57;100074.50;5000732;28;20042;-74
2022/04/23 05:47:02;;;;;;;21.48;17.70;;;;;;;6.02;82.67;100067.53;4987963;28;20541;-75
2022/04/23 05:49:28;;;;;;;19.15;15.95;;;;;;;6.09;82.39;100066.72;5002231;28;20456;-75
2022/04/23 05:51:53;;;;;;;20.65;16.60;;;;;;;6.16;81.98;100075.50;5000805;28;20046;-74
2022/04/23 05:54:18;;;;;;;21.20;17.38;;;;;;;6.23;82.02;100068.53;5010785;28;20029;-74
2022/04/23 05:56:44;;;;;;;20.63;15.80;;;;;;;6.29;81.91;100076.44;5006243;28;20034;-75
2022/04/23 05:59:09;;;;;;;19.73;15.93;;;;;;;6.38;81.97;100071.19;5003427;28;20033;-75
2022/04/23 06:01:35;;;;;;;21.20;16.27;;;;;;;6.47;82.00;100072.97;5002121;28;20038;-75
2022/04/23 06:04:00;;;;;;;21.10;16.60;;;;;;;6.57;81.97;100080.88;5004205;28;20042;-75
2022/04/23 06:06:25;;;;;;;20.60;17.50;;;;;;;6.67;82.00;100079.16;5008883;28;20030;-72
2022/04/23 06:08:51;;;;;;;21.15;17.33;;;;;;;6.77;82.19;100077.44;5008776;28;20057;-72
2022/04/23 06:11:16;;;;;;;20.65;16.25;;;;;;;6.87;82.20;100075.72;5007060;28;20042;-73
2022/04/23 06:13:41;;;;;;;22.67;18.50;;;;;;;6.96;81.66;100076.56;5006444;28;20022;-73
2022/04/23 06:16:07;;;;;;;22.13;18.33;;;;;;;7.07;81.29;100075.72;5003552;28;20451;-73
2022/04/23 06:18:32;;;;;;;20.63;16.77;;;;;;;7.16;80.60;100084.47;5002061;28;20493;-73
2022/04/23 06:20:57;;;;;;;21.88;17.90;;;;;;;7.24;80.37;100077.47;5004197;28;20493;-73
2022/04/23 06:23:22;;;;;;;22.33;17.58;;;;;;;7.32;79.82;100082.72;4999258;28;20116;-73
2022/04/23 06:25:48;;;;;;;21.38;17.02;;;;;;;7.44;79.88;100085.38;5005372;28;20039;-73
2022/04/23 06:28:13;;;;;;;24.75;17.10;;;;;;;7.57;79.31;100085.34;5010608;28;20405;-73
2022/04/23 06:30:38;;;;;;;19.13;15.23;;;;;;;7.67;78.36;100097.56;5001344;28;20511;-73
2022/04/23 06:33:04;;;;;;;19.25;15.30;;;;;;;7.78;77.60;100097.56;5004033;28;20499;-73
2022/04/23 06:35:30;;;;;;;16.35;13.93;;;;;;;7.85;76.91;100097.53;5001244;28;20038;-73
2022/04/23 06:37:56;;;;;;;19.00;15.25;;;;;;;7.95;76.81;100094.91;5008532;28;20092;-73
2022/04/23 06:40:21;;;;;;;17.42;13.73;;;;;;;8.03;75.61;100088.75;5008476;28;20480;-73
2022/04/23 06:42:46;;;;;;;19.02;14.73;;;;;;;8.15;75.67;100086.94;5003589;28;20096;-73
2022/04/23 06:45:12;;;;;;;17.20;12.40;;;;;;;8.26;75.44;100075.53;5004202;28;20062;-73
2022/04/23 06:47:37;;;;;;;14.27;11.77;;;;;;;8.33;74.45;100085.16;5005032;28;20069;-73
2022/04/23 06:50:04;;;;;;;15.88;13.07;;;;;;;8.43;73.46;100087.75;5006093;28;20117;-73
2022/04/23 06:52:29;;;;;;;16.38;12.75;;;;;;;8.52;73.23;100090.38;5005710;28;20030;-73
2022/04/23 06:54:58;;;;;;;14.13;11.57;;;;;;;8.62;72.84;100088.53;5006311;28;20041;-73
2022/04/23 06:57:24;;;;;;;13.15;10.85;;;;;;;8.72;71.74;100088.50;5007268;28;20488;-73
2022/04/23 06:59:50;;;;;;;15.23;11.35;;;;;;;8.79;71.20;100078.81;5004587;28;20117;-73
2022/04/23 07:02:16;;;;;;;14.38;10.60;;;;;;;8.89;70.60;100080.50;5001927;28;20046;-73
2022/04/23 07:04:41;;;;;;;12.40;10.60;;;;;;;8.97;69.80;100083.06;4998828;28;20038;-73
2022/04/23 07:07:08;;;;;;;15.85;10.80;;;;;;;9.07;69.94;100076.88;5003252;28;20037;-73
2022/04/23 07:09:33;;;;;;;12.85;10.10;;;;;;;9.14;69.20;100075.03;5005340;28;20555;-73
2022/04/23 07:11:58;;;;;;;17.33;11.63;;;;;;;9.16;67.47;100073.28;5003858;28;20104;-73
2022/04/23 07:14:25;;;;;;;13.05;10.00;;;;;;;9.28;67.51;100075.81;5002755;28;20034;-74
2022/04/23 07:16:50;;;;;;;11.35;8.98;;;;;;;9.38;66.97;100074.88;5001860;28;20069;-74
2022/04/23 07:19:16;;;;;;;12.05;9.10;;;;;;;9.49;66.06;100069.50;5003121;28;20139;-72
2022/04/23 07:21:41;;;;;;;11.80;9.27;;;;;;;9.57;65.74;100070.31;5005388;28;20034;-72
2022/04/23 07:24:08;;;;;;;11.38;8.68;;;;;;;9.60;63.55;100070.25;5000488;28;20034;-72
2022/04/23 07:26:35;;;;;;;10.23;7.95;;;;;;;9.72;63.57;100073.66;5002763;28;20045;-72
2022/04/23 07:29:06;;;;;;;10.15;8.02;;;;;;;9.80;63.24;100077.13;5002594;28;20057;-73
2022/04/23 07:31:32;;;;;;;10.77;7.80;;;;;;;9.91;62.53;100074.38;5000200;28;20041;-72
2022/04/23 07:39:26;;;;;;;8.68;6.70;;;;;;;10.22;61.65;100080.16;5006437;28;20033;-72
2022/04/23 07:41:54;;;;;;;8.90;6.10;;;;;;;10.33;60.69;100070.38;5005037;28;20084;-73
2022/04/23 07:44:20;;;;;;;9.57;6.78;;;;;;;10.38;60.46;100071.19;5003897;28;20037;-75
2022/04/23 07:46:45;;;;;;;8.77;6.53;;;;;;;10.44;59.63;100070.25;5000697;28;20088;-74
2022/04/23 07:49:10;;;;;;;11.98;7.40;;;;;;;10.46;60.33;100073.75;5003200;28;20503;-74
2022/04/23 07:51:36;;;;;;;11.52;6.97;;;;;;;10.55;59.95;100078.03;4999154;28;20041;-74
2022/04/23 07:54:01;;;;;;;9.68;7.10;;;;;;;10.60;59.27;100070.91;5000441;28;20099;-76
2022/04/23 07:56:26;;;;;;;9.00;6.47;;;;;;;10.72;59.72;100070.75;5003037;28;20037;-74
2022/04/23 07:58:52;;;;;;;8.95;6.75;;;;;;;10.84;59.36;100067.91;5006690;28;20528;-74
2022/04/23 08:01:17;;;;;;;8.20;6.68;;;;;;;10.89;58.86;100063.44;5003623;28;20038;-74
2022/04/23 08:03:43;;;;;;;11.90;7.50;;;;;;;10.96;58.69;100058.97;5002959;28;20041;-75
2022/04/23 08:06:10;;;;;;;8.52;6.78;;;;;;;11.07;58.82;100048.22;5009297;28;20120;-74
2022/04/23 08:08:36;;;;;;;8.68;6.43;;;;;;;11.15;58.42;100054.25;5002245;28;20084;-74
2022/04/23 08:11:01;;;;;;;9.40;6.20;;;;;;;11.24;57.62;100045.28;5001731;28;20038;-74
2022/04/23 08:13:27;;;;;;;8.52;6.47;;;;;;;11.30;57.08;100051.38;5000548;28;20038;-75
2022/04/23 08:15:52;;;;;;;10.18;7.07;;;;;;;11.41;57.50;100049.41;5000004;28;20057;-73
2022/04/23 08:18:18;;;;;;;8.55;6.38;;;;;;;11.51;56.89;100051.91;4999002;28;20029;-74
2022/04/23 08:20:45;;;;;;;7.47;5.78;;;;;;;11.59;56.78;100050.00;5007389;28;20041;-74
2022/04/23 08:23:10;;;;;;;8.60;5.57;;;;;;;11.69;55.57;100046.28;4998761;28;20038;-72
2022/04/23 08:25:35;;;;;;;8.18;6.13;;;;;;;11.73;54.17;100044.44;5010882;28;20510;-73
2022/04/23 08:30:46;;;;;;;8.15;6.28;;;;;;;11.86;54.71;100045.97;5005240;28;20066;-74
2022/04/23 08:33:12;;;;;;;9.10;6.18;;;;;;;12.00;53.69;100049.25;5004188;28;20374;-74
2022/04/23 08:35:38;;;;;;;9.98;7.65;;;;;;;12.11;53.61;100050.81;5006812;28;20045;-73
2022/04/23 08:38:05;;;;;;;6.90;5.82;;;;;;;12.23;53.84;100050.53;5004329;28;20485;-73
2022/04/23 08:40:43;;;;;;;7.78;5.18;;;;;;;12.30;52.98;100046.88;5009975;28;20038;-74
2022/04/23 08:43:08;;;;;;;9.23;5.85;;;;;;;12.27;53.02;100039.88;5003653;28;20065;-73
2022/04/23 08:45:37;;;;;;;8.48;6.65;;;;;;;12.40;52.92;100037.84;5005622;28;20088;-73
2022/04/23 08:48:08;;;;;;;8.02;6.07;;;;;;;12.52;53.03;100035.81;5005904;28;20050;-73
2022/04/23 08:50:37;;;;;;;7.90;6.68;;;;;;;12.59;53.26;100027.72;5001851;28;20042;-73
2022/04/23 08:53:08;;;;;;;7.75;6.13;;;;;;;12.75;53.08;100033.53;5005595;28;20042;-73
2022/04/23 08:55:34;;;;;;;8.13;6.10;;;;;;;12.78;52.51;100030.81;5010561;28;20031;-73
2022/04/23 08:58:00;;;;;;;7.80;5.85;;;;;;;12.89;52.56;100025.25;5003375;28;20033;-73
2022/04/23 09:00:25;;;;;;;7.35;5.82;;;;;;;12.95;51.42;100025.13;5005267;28;20037;-73
2022/04/23 09:02:51;;;;;;;7.18;5.65;;;;;;;12.99;51.32;100024.13;5004868;28;20092;-73
2022/04/23 09:05:16;;;;;;;9.60;5.63;;;;;;;13.02;50.84;100025.84;5002375;28;20046;-73
2022/04/23 09:07:52;;;;;;;8.18;5.07;;;;;;;13.08;50.82;100021.28;5009843;28;20041;-73
2022/04/23 09:10:17;;;;;;;8.00;5.70;;;;;;;13.21;50.80;100019.19;5005394;28;20042;-73
2022/04/23 09:12:53;;;;;;;8.18;6.30;;;;;;;13.30;50.15;100024.28;5006886;28;20048;-73
2022/04/23 09:24:09;;;;;;;7.47;5.47;;;;;;;13.61;49.55;100017.31;4923039;29;20135;-73
2022/04/23 09:26:35;;;;;;;6.45;5.50;;;;;;;13.69;49.73;100008.22;4979778;28;20056;-73
2022/04/23 09:29:12;;;;;;;7.00;5.53;;;;;;;13.79;49.21;100008.84;5006619;28;20038;-73
2022/04/23 09:31:37;;;;;;;6.22;5.00;;;;;;;13.92;49.83;100012.91;5003445;28;20049;-74
2022/04/23 09:34:17;;;;;;;5.78;4.90;;;;;;;14.03;48.59;100004.63;5003408;28;20117;-73
2022/04/23 09:37:00;;;;;;;7.00;5.22;;;;;;;14.05;47.66;100001.97;5003927;28;20070;-73
2022/04/23 09:39:38;;;;;;;6.65;4.65;;;;;;;14.06;47.03;100001.03;5002144;28;20604;-72
2022/04/23 09:42:17;;;;;;;7.30;4.53;;;;;;;14.14;47.35;99997.22;5002274;28;20030;-73
2022/04/23 09:44:43;;;;;;;7.32;5.00;;;;;;;14.33;48.31;99994.03;5003316;28;20505;-74
2022/04/23 09:47:09;;;;;;;6.38;4.90;;;;;;;14.46;48.83;99988.31;5005362;28;20033;-73
2022/04/23 09:49:34;;;;;;;5.60;4.07;;;;;;;14.56;47.30;99988.06;5002659;28;20481;-74
2022/04/23 09:52:04;;;;;;;8.15;4.82;;;;;;;14.61;46.91;99983.47;5002006;28;20088;-73
2022/04/23 09:54:31;;;;;;;6.20;4.95;;;;;;;14.71;46.92;99987.56;5002921;28;20042;-73
2022/04/23 09:56:57;;;;;;;7.60;4.68;;;;;;;14.70;46.08;99980.53;4984385;28;20069;-73
2022/04/23 09:59:23;;;;;;;6.60;4.07;;;;;;;14.74;46.69;99976.00;5003411;28;20053;-73
2022/04/23 10:01:49;;;;;;;5.85;4.55;;;;;;;14.88;46.24;99977.28;5002033;28;20040;-73
2022/04/23 10:04:19;;;;;;;8.15;5.00;;;;;;;14.93;46.15;99979.78;5002867;28;20460;-73
2022/04/23 10:06:45;;;;;;;5.45;4.10;;;;;;;14.97;45.50;99975.25;5000873;28;20038;-73
2022/04/23 10:09:14;;;;;;;5.20;4.10;;;;;;;15.10;46.25;99974.78;5006190;28;20037;-73
2022/04/23 10:11:42;;;;;;;5.05;3.92;;;;;;;15.26;45.90;99967.16;5002587;28;20049;-73
2022/04/23 10:14:11;;;;;;;7.57;4.43;;;;;;;15.40;45.18;99968.47;5004953;28;20092;-73
2022/04/23 10:16:39;;;;;;;5.53;4.10;;;;;;;15.42;45.11;99963.97;5002907;28;20141;-73
2022/04/23 10:19:06;;;;;;;6.20;3.90;;;;;;;15.51;44.73;99960.97;5002793;28;20445;-73
2022/04/23 10:21:40;;;;;;;4.80;3.85;;;;;;;15.50;43.72;99956.56;5003038;28;20034;-73
2022/04/23 10:24:16;;;;;;;5.15;3.83;;;;;;;15.62;43.76;99957.94;5003102;28;20042;-73
2022/04/23 10:26:46;;;;;;;5.97;3.70;;;;;;;15.64;43.79;99956.06;5001616;28;20548;-74
2022/04/23 10:29:14;;;;;;;5.75;3.60;;;;;;;15.70;43.95;99956.78;5003497;28;20050;-74
2022/04/23 10:31:41;;;;;;;5.95;3.15;;;;;;;15.87;43.63;99950.81;5003948;28;20735;-74
2022/04/23 10:34:32;;;;;;;5.55;3.70;;;;;;;15.96;42.03;99947.81;5001653;28;20089;-73
2022/04/23 10:37:14;;;;;;;6.18;3.17;;;;;;;16.07;42.36;99944.75;5001839;28;20452;-73
2022/04/23 10:39:40;;;;;;;5.63;3.70;;;;;;;16.16;42.71;99936.41;5001500;28;20096;-73
2022/04/23 10:42:06;;;;;;;4.97;3.78;;;;;;;16.30;43.05;99943.00;5007928;28;20297;-73
2022/04/23 10:44:31;;;;;;;4.63;3.33;;;;;;;16.46;42.84;99927.28;5005106;28;20049;-73
2022/04/23 10:46:58;;;;;;;4.10;2.90;;;;;;;16.24;41.40;99935.25;5003413;28;20046;-73
2022/04/23 10:49:25;;;;;;;4.38;3.33;;;;;;;16.41;42.35;99931.00;5001284;28;20073;-73
2022/04/23 10:51:55;;;;;;;5.55;3.90;;;;;;;16.62;42.75;99931.06;5003678;28;20041;-73
2022/04/23 10:54:40;;;;;;;5.00;3.53;;;;;;;16.83;41.54;99926.69;5003044;28;20556;-73
2022/04/23 10:57:09;;;;;;;4.72;3.42;;;;;;;16.97;41.80;99928.75;5008031;28;20037;-73
2022/04/23 10:59:49;;;;;;;5.25;3.15;;;;;;;17.04;40.62;99915.13;5003232;28;20043;-73
2022/04/23 11:02:23;;;;;;;4.93;3.40;;;;;;;17.16;40.93;99921.75;5002422;28;20031;-73
2022/04/23 11:13:38;;;;;;;5.85;2.67;;;;;;;17.64;39.98;99899.16;5000980;28;20034;-73
2022/04/23 11:16:16;;;;;;;4.93;3.13;;;;;;;17.84;39.73;99903.63;5001912;28;20152;-74
2022/04/23 11:18:43;;;;;;;5.35;3.88;;;;;;;17.99;39.81;99896.69;5003683;28;20465;-73
2022/04/23 11:21:13;;;;;;;4.28;3.13;;;;;;;18.10;38.73;99893.50;5001485;28;20053;-73
2022/04/23 11:23:48;;;;;;;3.90;3.15;;;;;;;18.18;38.71;99892.22;5004662;28;20042;-73
2022/04/23 11:26:33;;;;;;;5.03;3.38;;;;;;;18.19;38.07;99895.75;5001038;28;20031;-73
2022/04/23 11:28:59;;;;;;;7.82;3.50;;;;;;;18.27;37.89;99895.41;5000474;28;20042;-74
2022/04/23 11:31:26;;;;;;;4.68;3.28;;;;;;;18.31;37.89;99889.84;5002119;28;20128;-74
2022/04/23 11:33:56;;;;;;;5.65;3.17;;;;;;;18.55;37.17;99874.41;5002470;28;20042;-74
2022/04/23 11:36:27;;;;;;;7.10;3.10;;;;;;;18.68;36.16;99882.69;5003631;28;20029;-73
2022/04/23 11:38:56;;;;;;;4.40;3.15;;;;;;;19.01;36.20;99881.94;5003143;28;20045;-74
2022/04/23 11:41:35;;;;;;;5.55;3.03;;;;;;;18.88;35.78;99884.38;5000826;28;20062;-73
2022/04/23 11:47:08;;;;;;;4.20;2.85;;;;;;;19.40;35.15;99870.09;5000643;28;20038;-73
2022/04/23 11:49:33;;;;;;;3.92;3.05;;;;;;;19.53;34.72;99870.31;5002199;28;20511;-74
2022/04/23 11:52:06;;;;;;;4.10;2.78;;;;;;;19.76;34.64;99869.13;4999216;28;20047;-74
2022/04/23 11:54:36;;;;;;;5.03;3.28;;;;;;;20.20;34.76;99865.75;5002690;28;20042;-74